createdAt,value
2019-02-19T00:03:33.771Z,66.18
2019-02-19T00:07:38.164Z,66.20
2019-02-19T00:11:42.441Z,66.07
2019-02-19T00:15:46.954Z,65.83
2019-02-19T00:19:51.200Z,65.56
2019-02-19T00:23:55.404Z,65.41
2019-02-19T00:27:59.633Z,65.37
2019-02-19T00:32:04.363Z,65.68
2019-02-19T00:36:08.551Z,65.62
2019-02-19T00:40:12.796Z,65.58
2019-02-19T00:44:17.372Z,65.58
2019-02-19T00:48:21.599Z,65.73
2019-02-19T00:52:25.772Z,66.14
2019-02-19T00:56:29.992Z,66.60
2019-02-19T01:00:34.297Z,66.80
2019-02-19T01:04:38.469Z,66.49
2019-02-19T01:08:42.852Z,66.44
2019-02-19T01:12:47.100Z,66.42
2019-02-19T01:16:51.316Z,66.48
2019-02-19T01:20:55.502Z,66.24
2019-02-19T01:24:59.725Z,66.53
2019-02-19T01:29:03.993Z,66.82
2019-02-19T01:33:08.213Z,66.87
2019-02-19T01:37:12.410Z,66.92
2019-02-19T01:41:16.622Z,67.08
2019-02-19T01:45:21.174Z,66.95
2019-02-19T01:49:25.392Z,67.07
2019-02-19T01:53:29.613Z,66.91
2019-02-19T01:57:33.797Z,66.65
2019-02-19T02:01:38.382Z,66.88
2019-02-19T02:05:42.547Z,67.24
2019-02-19T02:09:46.824Z,67.22
2019-02-19T02:13:51.053Z,67.14
2019-02-19T02:17:55.261Z,67.01
2019-02-19T02:21:59.765Z,66.88
2019-02-19T02:26:04.147Z,67.08
2019-02-19T02:30:08.535Z,67.45
2019-02-19T02:34:12.710Z,67.60
2019-02-19T02:38:16.974Z,67.52
2019-02-19T02:42:21.189Z,67.15
2019-02-19T02:46:25.375Z,67.25
2019-02-19T02:50:29.601Z,67.37
2019-02-19T02:54:33.820Z,67.46
2019-02-19T02:58:38.004Z,67.54
2019-02-19T03:02:42.260Z,67.79
2019-02-19T03:06:54.163Z,68.17
2019-02-19T03:10:58.428Z,68.55
2019-02-19T03:15:04.552Z,68.75
2019-02-19T03:19:08.794Z,68.80
2019-02-19T03:23:13.003Z,68.68
2019-02-19T03:27:17.185Z,68.77
2019-02-19T03:31:21.707Z,68.61
2019-02-19T03:35:25.937Z,68.32
2019-02-19T03:39:30.112Z,68.37
2019-02-19T03:43:34.337Z,68.31
2019-02-19T03:47:38.591Z,68.29
2019-02-19T03:51:42.840Z,68.39
2019-02-19T03:55:47.131Z,68.45
2019-02-19T03:59:51.357Z,68.32
2019-02-19T04:03:55.578Z,68.29
2019-02-19T04:07:59.812Z,68.22
2019-02-19T04:12:04.790Z,68.22
2019-02-19T04:16:09.020Z,68.24
2019-02-19T04:20:13.607Z,68.25
2019-02-19T04:24:17.826Z,68.66
2019-02-19T04:28:22.046Z,68.70
2019-02-19T04:32:26.265Z,68.60
2019-02-19T04:36:30.802Z,68.79
2019-02-19T04:40:35.029Z,68.77
2019-02-19T04:44:39.306Z,68.66
2019-02-19T04:48:43.493Z,68.54
2019-02-19T04:52:47.714Z,68.57
2019-02-19T04:56:51.937Z,68.54
2019-02-19T05:00:56.122Z,68.83
2019-02-19T05:05:00.395Z,69.10
2019-02-19T05:09:05.194Z,69.27
2019-02-19T05:13:09.459Z,69.65
2019-02-19T05:17:13.655Z,69.89
2019-02-19T05:21:17.886Z,70.21
2019-02-19T05:25:22.071Z,70.25
2019-02-19T05:29:26.299Z,70.31
2019-02-19T05:33:30.532Z,70.35
2019-02-19T05:37:34.712Z,70.61
2019-02-19T05:41:38.951Z,70.67
2019-02-19T05:45:43.236Z,70.62
2019-02-19T05:49:47.405Z,70.33
2019-02-19T05:53:51.631Z,70.07
2019-02-19T05:57:55.806Z,70.00
2019-02-19T06:02:00.101Z,69.97
2019-02-19T06:06:04.439Z,70.00
2019-02-19T06:10:10.208Z,70.35
2019-02-19T06:14:14.466Z,71.02
2019-02-19T06:18:18.882Z,70.69
2019-02-19T06:22:23.108Z,70.48
2019-02-19T06:26:27.318Z,70.50
2019-02-19T06:30:31.813Z,70.50
2019-02-19T06:34:36.020Z,70.72
2019-02-19T06:38:40.235Z,71.13
2019-02-19T06:42:44.452Z,71.46
2019-02-19T06:46:48.634Z,71.20
2019-02-19T06:50:52.853Z,70.90
2019-02-19T06:54:57.103Z,71.19
2019-02-19T06:59:01.285Z,71.46
2019-02-19T07:03:13.260Z,71.61
2019-02-19T07:07:17.494Z,71.75
2019-02-19T07:11:21.815Z,71.94
2019-02-19T07:15:26.027Z,72.07
2019-02-19T07:19:30.290Z,72.22
2019-02-19T07:23:34.507Z,72.33
2019-02-19T07:27:38.728Z,72.55
2019-02-19T07:31:42.959Z,72.85
2019-02-19T07:35:47.200Z,73.11
2019-02-19T07:39:51.370Z,73.67
2019-02-19T07:43:55.643Z,73.81
2019-02-19T07:47:59.853Z,74.37
2019-02-19T07:52:04.077Z,74.42
2019-02-19T07:56:08.300Z,74.52
2019-02-19T08:00:12.514Z,74.78
2019-02-19T08:04:16.760Z,74.85
2019-02-19T08:08:20.977Z,74.93
2019-02-19T08:12:26.275Z,75.04
2019-02-19T08:16:30.571Z,74.88
2019-02-19T08:20:34.786Z,75.28
2019-02-19T08:24:39.007Z,74.73
2019-02-19T08:28:43.254Z,75.11
2019-02-19T08:32:47.438Z,74.99
2019-02-19T08:36:51.658Z,74.80
2019-02-19T08:40:55.878Z,74.92
2019-02-19T08:45:00.112Z,74.98
2019-02-19T08:49:04.284Z,74.71
2019-02-19T08:53:08.498Z,75.72
2019-02-19T08:57:12.684Z,74.65
2019-02-19T09:01:16.906Z,74.95
2019-02-19T09:05:21.139Z,74.50
2019-02-19T09:09:25.647Z,74.51
2019-02-19T09:13:29.945Z,74.31
2019-02-19T09:17:34.172Z,74.29
2019-02-19T09:21:38.382Z,74.20
2019-02-19T09:25:42.610Z,73.77
2019-02-19T09:29:47.611Z,73.71
2019-02-19T09:33:51.844Z,73.61
2019-02-19T09:37:56.034Z,73.51
2019-02-19T09:42:00.250Z,73.65
2019-02-19T09:46:05.934Z,73.52
2019-02-19T09:50:10.476Z,73.22
2019-02-19T09:54:14.666Z,72.69
2019-02-19T09:58:18.891Z,73.15
2019-02-19T10:02:23.087Z,72.70
2019-02-19T10:06:27.291Z,72.48
2019-02-19T10:10:31.568Z,72.27
2019-02-19T10:14:36.805Z,71.77
2019-02-19T10:18:40.995Z,71.44
2019-02-19T10:22:45.221Z,71.00
2019-02-19T10:26:49.739Z,70.57
2019-02-19T10:30:54.082Z,70.29
2019-02-19T10:34:58.301Z,69.74
2019-02-19T10:39:02.480Z,69.27
2019-02-19T10:43:06.980Z,67.27
2019-02-19T10:47:11.196Z,67.50
2019-02-19T10:51:15.429Z,66.85
2019-02-19T10:55:19.612Z,65.23
2019-02-19T10:59:23.836Z,63.64
2019-02-19T11:03:28.096Z,63.46
2019-02-19T11:07:32.385Z,60.60
2019-02-19T11:11:36.669Z,60.22
2019-02-19T11:15:40.922Z,55.82
2019-02-19T11:19:45.104Z,52.87
2019-02-19T11:23:49.329Z,53.56
2019-02-19T11:27:53.520Z,54.38
2019-02-19T11:31:57.740Z,53.36
2019-02-19T11:36:02.033Z,52.19
2019-02-19T11:40:08.191Z,52.65
2019-02-19T11:44:12.690Z,50.28
2019-02-19T11:48:16.930Z,51.78
2019-02-19T11:52:21.136Z,49.15
2019-02-19T11:56:25.359Z,49.15
2019-02-19T12:00:38.738Z,49.36
2019-02-19T12:04:42.982Z,46.84
2019-02-19T12:08:47.214Z,46.84
2019-02-19T12:12:51.468Z,47.68
2019-02-19T12:16:55.707Z,48.52
2019-02-19T12:20:59.891Z,48.39
2019-02-19T12:25:04.149Z,48.39
2019-02-19T12:29:08.368Z,46.57
2019-02-19T12:33:12.589Z,46.76
2019-02-19T12:37:16.806Z,46.65
2019-02-19T12:41:21.010Z,45.80
2019-02-19T12:45:25.233Z,45.83
2019-02-19T12:49:29.417Z,45.26
2019-02-19T12:53:33.639Z,46.12
2019-02-19T12:57:37.885Z,44.08
2019-02-19T13:01:42.074Z,42.93
2019-02-19T13:05:46.411Z,42.89
2019-02-19T13:09:50.965Z,44.87
2019-02-19T13:13:55.223Z,45.28
2019-02-19T13:17:59.402Z,45.01
2019-02-19T13:22:03.610Z,44.94
2019-02-19T13:26:07.929Z,45.43
2019-02-19T13:30:14.065Z,45.17
2019-02-19T13:34:18.288Z,45.04
2019-02-19T13:38:22.523Z,44.00
2019-02-19T13:42:26.754Z,43.34
2019-02-19T13:46:30.944Z,43.20
2019-02-19T13:50:35.173Z,43.80
2019-02-19T13:54:45.409Z,43.37
2019-02-19T13:58:49.602Z,44.08
2019-02-19T14:02:53.774Z,43.73
2019-02-19T14:06:57.967Z,44.21
2019-02-19T14:11:02.217Z,44.05
2019-02-19T14:15:17.212Z,43.79
2019-02-19T14:19:39.027Z,44.05
2019-02-19T14:24:14.379Z,44.01
2019-02-19T14:28:36.367Z,42.85
2019-02-19T14:32:58.429Z,43.26
2019-02-19T14:37:24.678Z,42.92
2019-02-19T14:41:37.421Z,43.02
2019-02-19T14:46:09.697Z,42.79
2019-02-19T14:50:31.840Z,42.66
2019-02-19T14:54:54.027Z,42.33
2019-02-19T14:59:17.172Z,43.05
2019-02-19T15:03:40.514Z,43.12
2019-02-19T15:08:02.509Z,43.28
2019-02-19T15:12:23.929Z,43.27
2019-02-19T15:16:47.109Z,43.32
2019-02-19T15:21:17.403Z,43.59
2019-02-19T15:25:32.320Z,43.83
2019-02-19T15:29:54.199Z,43.73
2019-02-19T15:34:17.276Z,44.23
2019-02-19T15:38:39.154Z,44.16
2019-02-19T15:43:05.158Z,44.20
2019-02-19T15:47:31.673Z,44.17
2019-02-19T15:51:53.457Z,43.94
2019-02-19T15:56:31.992Z,43.21
2019-02-19T16:00:43.156Z,44.02
2019-02-19T16:05:06.324Z,43.90
2019-02-19T16:09:15.581Z,43.59
2019-02-19T16:13:24.651Z,43.56
2019-02-19T16:17:59.096Z,43.87
2019-02-19T16:22:21.761Z,43.81
2019-02-19T16:26:51.043Z,43.11
2019-02-19T16:31:14.196Z,43.63
2019-02-19T16:35:37.376Z,43.87
2019-02-19T16:39:49.420Z,42.93
2019-02-19T16:44:02.954Z,43.68
2019-02-19T16:48:41.237Z,43.90
2019-02-19T16:53:07.406Z,44.18
2019-02-19T16:57:27.267Z,44.34
2019-02-19T17:01:48.849Z,44.94
2019-02-19T17:06:24.217Z,45.09
2019-02-19T17:10:37.637Z,44.78
2019-02-19T17:14:56.593Z,44.87
2019-02-19T17:19:25.838Z,44.96
2019-02-19T17:23:39.053Z,44.93
2019-02-19T17:28:08.314Z,45.16
2019-02-19T17:32:29.993Z,45.01
2019-02-19T17:37:05.299Z,45.16
2019-02-19T17:41:20.772Z,45.03
2019-02-19T17:45:49.783Z,45.32
2019-02-19T17:50:28.432Z,44.99
2019-02-19T17:54:57.689Z,45.54
2019-02-19T17:59:27.093Z,45.98
2019-02-19T18:03:46.585Z,45.98
2019-02-19T18:08:06.202Z,45.81
2019-02-19T18:12:17.538Z,45.95
2019-02-19T18:16:33.233Z,45.95
2019-02-19T18:20:37.481Z,46.14
2019-02-19T18:24:41.718Z,46.37
2019-02-19T18:28:45.907Z,46.36
2019-02-19T18:32:50.547Z,46.67
2019-02-19T18:36:54.729Z,46.67
2019-02-19T18:40:59.293Z,46.83
2019-02-19T18:45:03.603Z,46.67
2019-02-19T18:49:07.824Z,46.67
2019-02-19T18:53:12.050Z,47.17
2019-02-19T18:57:16.306Z,47.13
2019-02-19T19:01:20.569Z,47.22
2019-02-19T19:05:24.737Z,47.20
2019-02-19T19:09:29.067Z,47.39
2019-02-19T19:13:33.651Z,47.30
2019-02-19T19:17:37.868Z,47.60
2019-02-19T19:21:42.116Z,47.60
2019-02-19T19:25:46.526Z,47.80
2019-02-19T19:29:50.814Z,47.87
2019-02-19T19:33:55.169Z,48.16
2019-02-19T19:37:59.485Z,48.25
2019-02-19T19:42:03.806Z,48.47
2019-02-19T19:46:08.993Z,48.62
2019-02-19T19:50:13.364Z,48.71
2019-02-19T19:54:17.561Z,48.81
2019-02-19T19:58:22.056Z,49.02
2019-02-19T20:02:26.380Z,49.05
2019-02-19T20:06:30.723Z,49.20
2019-02-19T20:10:35.131Z,49.35
2019-02-19T20:14:39.571Z,49.42
2019-02-19T20:18:43.996Z,49.51
2019-02-19T20:22:48.450Z,49.67
2019-02-19T20:26:52.896Z,49.77
2019-02-19T20:30:57.365Z,49.88
2019-02-19T20:35:01.905Z,49.88
2019-02-19T20:39:10.326Z,50.00
2019-02-19T20:43:15.150Z,50.20
2019-02-19T20:47:20.176Z,50.30
2019-02-19T20:51:24.934Z,50.49
2019-02-19T20:55:36.724Z,50.51
2019-02-19T20:59:36.537Z,50.51
2019-02-19T21:03:44.084Z,50.57
2019-02-19T21:07:48.463Z,50.71
2019-02-19T21:11:53.278Z,50.76
2019-02-19T21:15:59.026Z,51.39
2019-02-19T21:20:03.766Z,51.41
2019-02-19T21:24:08.122Z,51.29
2019-02-19T21:28:13.578Z,51.30
2019-02-19T21:32:17.945Z,51.84
2019-02-19T21:36:22.334Z,52.38
2019-02-19T21:40:26.621Z,52.65
2019-02-19T21:44:31.053Z,52.67
2019-02-19T21:48:35.381Z,52.73
2019-02-19T21:52:39.819Z,52.79
2019-02-19T21:56:44.008Z,52.91
2019-02-19T22:00:48.250Z,53.22
2019-02-19T22:04:52.567Z,53.32
2019-02-19T22:08:56.803Z,53.50
2019-02-19T22:13:01.016Z,53.55
2019-02-19T22:17:05.229Z,53.58
2019-02-19T22:21:15.693Z,53.70
2019-02-19T22:25:19.971Z,53.77
2019-02-19T22:29:24.251Z,53.69
2019-02-19T22:33:28.435Z,53.72
2019-02-19T22:37:32.656Z,53.67
2019-02-19T22:41:36.895Z,53.74
2019-02-19T22:45:41.123Z,53.89
2019-02-19T22:49:45.329Z,54.07
2019-02-19T22:53:59.820Z,54.56
2019-02-19T22:58:04.055Z,54.67
2019-02-19T23:02:21.590Z,54.89
2019-02-19T23:06:25.903Z,54.93
2019-02-19T23:10:30.129Z,55.17
2019-02-19T23:14:34.353Z,55.32
2019-02-19T23:18:39.160Z,55.49
2019-02-19T23:22:43.452Z,55.64
2019-02-19T23:26:47.686Z,55.90
2019-02-19T23:30:51.906Z,56.08
2019-02-19T23:35:24.446Z,56.28
2019-02-19T23:39:28.647Z,56.47
2019-02-19T23:43:32.882Z,56.63
2019-02-19T23:47:37.404Z,56.70
2019-02-19T23:51:41.692Z,56.66
2019-02-19T23:55:45.929Z,56.64
2019-02-19T23:59:50.130Z,56.71
